createdAt,value
2018-10-05T00:01:07.593Z,12.20
2018-10-05T00:03:36.385Z,12.20
2018-10-05T00:06:05.243Z,12.20
2018-10-05T00:08:34.039Z,12.10
2018-10-05T00:11:02.844Z,12.10
2018-10-05T00:13:31.604Z,12.10
2018-10-05T00:16:00.344Z,12.10
2018-10-05T00:18:29.184Z,12.10
2018-10-05T00:20:57.948Z,12.10
2018-10-05T00:23:26.733Z,12.10
2018-10-05T00:25:55.527Z,12.10
2018-10-05T00:28:24.293Z,11.90
2018-10-05T00:30:53.140Z,11.90
2018-10-05T00:33:21.902Z,11.90
2018-10-05T00:35:50.729Z,11.90
2018-10-05T00:38:19.549Z,11.90
2018-10-05T00:40:48.359Z,11.80
2018-10-05T00:43:17.246Z,11.80
2018-10-05T00:45:46.067Z,11.80
2018-10-05T00:48:14.918Z,11.60
2018-10-05T00:50:43.699Z,11.60
2018-10-05T00:53:12.620Z,11.50
2018-10-05T00:55:41.320Z,11.40
2018-10-05T00:58:10.079Z,11.40
2018-10-05T01:00:38.953Z,11.50
2018-10-05T01:03:07.860Z,11.50
2018-10-05T01:05:36.673Z,11.40
2018-10-05T01:08:05.522Z,11.30
2018-10-05T01:10:34.332Z,11.30
2018-10-05T01:13:03.191Z,11.30
2018-10-05T01:15:31.977Z,11.20
2018-10-05T01:18:00.755Z,11.20
2018-10-05T01:20:29.587Z,11.20
2018-10-05T01:22:58.376Z,11.20
2018-10-05T01:25:27.185Z,11.00
2018-10-05T01:27:56.026Z,11.10
2018-10-05T01:30:24.851Z,11.10
2018-10-05T01:32:53.648Z,11.10
2018-10-05T01:35:22.510Z,11.10
2018-10-05T01:37:51.320Z,11.10
2018-10-05T01:40:20.156Z,11.10
2018-10-05T01:42:48.965Z,11.10
2018-10-05T01:45:17.784Z,11.00
2018-10-05T01:47:46.571Z,11.00
2018-10-05T01:50:15.365Z,11.00
2018-10-05T01:52:44.130Z,10.90
2018-10-05T01:55:12.980Z,10.80
2018-10-05T01:57:41.920Z,10.80
2018-10-05T02:00:10.801Z,10.70
2018-10-05T02:02:39.897Z,10.70
2018-10-05T02:05:09.199Z,10.70
2018-10-05T02:07:37.981Z,10.60
2018-10-05T02:10:06.832Z,10.60
2018-10-05T02:12:35.600Z,10.60
2018-10-05T02:15:04.723Z,10.60
2018-10-05T02:17:33.546Z,10.50
2018-10-05T02:20:02.340Z,10.30
2018-10-05T02:22:31.148Z,10.20
2018-10-05T02:24:59.915Z,10.30
2018-10-05T02:27:28.707Z,10.40
2018-10-05T02:29:57.520Z,10.40
2018-10-05T02:32:26.329Z,10.40
2018-10-05T02:34:55.161Z,10.40
2018-10-05T02:37:23.940Z,10.40
2018-10-05T02:39:52.741Z,10.40
2018-10-05T02:42:21.516Z,10.40
2018-10-05T02:44:50.293Z,10.40
2018-10-05T02:47:19.115Z,10.30
2018-10-05T02:49:47.883Z,10.40
2018-10-05T02:52:16.673Z,10.30
2018-10-05T02:54:45.470Z,10.30
2018-10-05T02:57:14.280Z,10.20
2018-10-05T02:59:43.097Z,10.20
2018-10-05T03:02:21.661Z,10.20
2018-10-05T03:04:50.504Z,10.20
2018-10-05T03:07:19.296Z,10.10
2018-10-05T03:09:48.056Z,10.00
2018-10-05T03:12:16.795Z,9.70
2018-10-05T03:14:45.588Z,9.50
2018-10-05T03:17:14.592Z,9.50
2018-10-05T03:19:43.414Z,9.60
2018-10-05T03:22:12.317Z,9.70
2018-10-05T03:24:41.092Z,9.70
2018-10-05T03:27:09.887Z,9.70
2018-10-05T03:29:38.710Z,9.70
2018-10-05T03:32:11.195Z,9.70
2018-10-05T03:34:40.043Z,9.70
2018-10-05T03:37:08.863Z,9.70
2018-10-05T03:39:37.602Z,9.70
2018-10-05T03:42:06.423Z,9.70
2018-10-05T03:44:35.203Z,9.70
2018-10-05T03:47:04.023Z,9.70
2018-10-05T03:49:32.783Z,9.70
2018-10-05T03:52:01.673Z,9.70
2018-10-05T03:54:30.422Z,9.70
2018-10-05T03:56:59.171Z,9.60
2018-10-05T03:59:28.012Z,9.50
2018-10-05T04:01:56.875Z,9.40
2018-10-05T04:04:25.652Z,9.40
2018-10-05T04:06:54.395Z,9.40
2018-10-05T04:09:23.192Z,9.40
2018-10-05T04:11:51.938Z,9.20
2018-10-05T04:14:20.744Z,9.10
2018-10-05T04:16:49.504Z,8.90
2018-10-05T04:19:18.276Z,8.70
2018-10-05T04:21:47.099Z,8.60
2018-10-05T04:24:15.921Z,8.50
2018-10-05T04:26:44.728Z,8.40
2018-10-05T04:29:13.499Z,8.60
2018-10-05T04:31:42.273Z,8.70
2018-10-05T04:34:11.051Z,8.80
2018-10-05T04:36:39.879Z,8.80
2018-10-05T04:39:09.311Z,8.90
2018-10-05T04:41:38.099Z,8.90
2018-10-05T04:44:06.883Z,9.00
2018-10-05T04:46:35.715Z,9.00
2018-10-05T04:49:04.512Z,9.00
2018-10-05T04:51:33.343Z,8.70
2018-10-05T04:54:02.144Z,8.70
2018-10-05T04:56:30.954Z,8.70
2018-10-05T04:58:59.725Z,8.70
2018-10-05T05:01:28.574Z,8.70
2018-10-05T05:03:57.353Z,8.70
2018-10-05T05:06:26.160Z,8.70
2018-10-05T05:08:54.920Z,8.40
2018-10-05T05:11:23.703Z,8.50
2018-10-05T05:13:52.577Z,8.60
2018-10-05T05:16:21.372Z,8.60
2018-10-05T05:18:50.161Z,8.70
2018-10-05T05:21:18.940Z,8.70
2018-10-05T05:23:47.767Z,8.70
2018-10-05T05:26:16.608Z,8.80
2018-10-05T05:28:45.390Z,8.80
2018-10-05T05:31:14.188Z,8.80
2018-10-05T05:33:43.092Z,8.80
2018-10-05T05:36:11.807Z,8.90
2018-10-05T05:38:40.637Z,8.90
2018-10-05T05:41:09.407Z,8.80
2018-10-05T05:43:38.167Z,8.80
2018-10-05T05:46:06.993Z,8.90
2018-10-05T05:48:35.770Z,8.90
2018-10-05T05:51:04.621Z,8.90
2018-10-05T05:53:33.468Z,8.90
2018-10-05T05:56:02.228Z,8.80
2018-10-05T05:58:31.011Z,8.80
2018-10-05T06:01:03.998Z,8.80
2018-10-05T06:03:32.816Z,8.80
2018-10-05T06:06:01.597Z,8.80
2018-10-05T06:08:30.446Z,8.80
2018-10-05T06:10:59.284Z,8.80
2018-10-05T06:13:28.357Z,8.90
2018-10-05T06:15:57.840Z,8.90
2018-10-05T06:18:26.661Z,8.90
2018-10-05T06:20:55.515Z,9.00
2018-10-05T06:23:24.840Z,9.00
2018-10-05T06:25:53.766Z,9.00
2018-10-05T06:28:22.589Z,9.00
2018-10-05T06:30:51.500Z,9.00
2018-10-05T06:33:20.239Z,9.00
2018-10-05T06:35:48.991Z,9.00
2018-10-05T06:38:17.821Z,9.00
2018-10-05T06:40:46.625Z,9.00
2018-10-05T06:43:15.427Z,9.10
2018-10-05T06:45:44.317Z,9.10
2018-10-05T06:48:13.103Z,9.10
2018-10-05T06:50:41.912Z,9.10
2018-10-05T06:53:10.809Z,9.10
2018-10-05T06:55:39.630Z,9.10
2018-10-05T06:58:15.238Z,9.10
2018-10-05T07:00:44.048Z,9.20
2018-10-05T07:03:12.831Z,9.10
2018-10-05T07:05:41.580Z,9.20
2018-10-05T07:08:10.432Z,9.20
2018-10-05T07:10:39.216Z,9.20
2018-10-05T07:13:08.004Z,9.30
2018-10-05T07:15:36.845Z,9.30
2018-10-05T07:18:05.711Z,9.30
2018-10-05T07:20:34.499Z,9.30
2018-10-05T07:23:03.321Z,9.30
2018-10-05T07:25:32.203Z,9.40
2018-10-05T07:28:01.022Z,9.40
2018-10-05T07:30:29.844Z,9.40
2018-10-05T07:32:58.701Z,9.50
2018-10-05T07:35:27.523Z,9.50
2018-10-05T07:37:56.282Z,9.50
2018-10-05T07:40:25.127Z,9.60
2018-10-05T07:42:53.993Z,9.60
2018-10-05T07:45:22.843Z,9.60
2018-10-05T07:47:51.651Z,9.60
2018-10-05T07:50:20.490Z,9.70
2018-10-05T07:52:49.258Z,9.70
2018-10-05T07:55:18.073Z,9.80
2018-10-05T07:57:46.913Z,9.80
2018-10-05T08:00:15.780Z,9.80
2018-10-05T08:02:44.585Z,9.80
2018-10-05T08:05:13.403Z,9.80
2018-10-05T08:07:42.173Z,9.80
2018-10-05T08:10:10.965Z,9.80
2018-10-05T08:12:39.783Z,9.80
2018-10-05T08:15:08.596Z,9.80
2018-10-05T08:17:37.413Z,9.80
2018-10-05T08:20:06.228Z,9.90
2018-10-05T08:22:35.062Z,9.90
2018-10-05T08:25:03.938Z,9.90
2018-10-05T08:27:32.737Z,10.00
2018-10-05T08:30:01.508Z,10.00
2018-10-05T08:32:30.318Z,10.10
2018-10-05T08:34:59.104Z,10.10
2018-10-05T08:37:27.917Z,10.10
2018-10-05T08:39:56.841Z,10.20
2018-10-05T08:42:25.550Z,10.20
2018-10-05T08:44:54.363Z,10.30
2018-10-05T08:47:23.129Z,10.30
2018-10-05T08:49:51.964Z,10.40
2018-10-05T08:52:20.883Z,10.50
2018-10-05T08:54:49.581Z,10.50
2018-10-05T08:57:18.348Z,10.60
2018-10-05T08:59:47.124Z,10.70
2018-10-05T09:02:15.969Z,10.70
2018-10-05T09:04:44.758Z,10.80
2018-10-05T09:07:13.578Z,10.80
2018-10-05T09:09:42.344Z,10.90
2018-10-05T09:12:11.168Z,11.00
2018-10-05T09:14:39.989Z,11.00
2018-10-05T09:17:08.829Z,11.10
2018-10-05T09:19:37.624Z,11.20
2018-10-05T09:22:06.458Z,11.30
2018-10-05T09:24:35.282Z,11.30
2018-10-05T09:27:04.181Z,11.40
2018-10-05T09:29:32.963Z,11.50
2018-10-05T09:32:01.792Z,11.60
2018-10-05T09:34:30.626Z,11.70
2018-10-05T09:36:59.445Z,11.70
2018-10-05T09:39:28.279Z,11.80
2018-10-05T09:41:57.085Z,11.90
2018-10-05T09:44:25.876Z,11.90
2018-10-05T09:46:54.663Z,12.10
2018-10-05T09:49:23.516Z,12.10
2018-10-05T09:51:52.343Z,12.20
2018-10-05T09:54:21.196Z,12.30
2018-10-05T09:56:49.983Z,12.40
2018-10-05T09:59:18.774Z,12.50
2018-10-05T10:02:56.589Z,12.60
2018-10-05T10:05:25.474Z,12.70
2018-10-05T10:07:54.269Z,12.80
2018-10-05T10:10:23.416Z,12.90
2018-10-05T10:12:52.226Z,13.00
2018-10-05T10:15:21.080Z,13.10
2018-10-05T10:17:49.914Z,13.20
2018-10-05T10:20:18.703Z,13.40
2018-10-05T10:22:47.590Z,13.50
2018-10-05T10:25:16.460Z,13.60
2018-10-05T10:27:45.424Z,13.70
2018-10-05T10:30:14.248Z,13.80
2018-10-05T10:32:43.027Z,13.90
2018-10-05T10:35:11.905Z,14.10
2018-10-05T10:37:40.725Z,14.20
2018-10-05T10:40:09.696Z,14.30
2018-10-05T10:42:38.589Z,14.40
2018-10-05T10:45:07.927Z,14.60
2018-10-05T10:47:36.812Z,14.70
2018-10-05T10:50:05.640Z,14.80
2018-10-05T10:52:34.472Z,14.90
2018-10-05T10:55:03.421Z,15.10
2018-10-05T10:57:32.222Z,15.20
2018-10-05T11:00:01.079Z,15.30
2018-10-05T11:02:29.876Z,15.50
2018-10-05T11:04:58.746Z,15.60
2018-10-05T11:07:27.543Z,15.60
2018-10-05T11:09:56.368Z,15.70
2018-10-05T11:12:25.252Z,15.90
2018-10-05T11:14:54.038Z,16.10
2018-10-05T11:17:22.837Z,16.20
2018-10-05T11:19:51.636Z,16.20
2018-10-05T11:22:20.553Z,16.40
2018-10-05T11:24:49.398Z,16.40
2018-10-05T11:27:18.192Z,16.50
2018-10-05T11:29:47.069Z,16.60
2018-10-05T11:32:15.832Z,16.80
2018-10-05T11:34:44.640Z,16.90
2018-10-05T11:37:13.420Z,17.00
2018-10-05T11:39:42.172Z,17.20
2018-10-05T11:42:10.965Z,17.20
2018-10-05T11:44:39.741Z,17.40
2018-10-05T11:47:08.534Z,17.40
2018-10-05T11:49:37.478Z,17.50
2018-10-05T11:52:06.367Z,17.70
2018-10-05T11:54:35.112Z,17.80
2018-10-05T11:57:03.910Z,17.90
2018-10-05T11:59:32.702Z,18.00
2018-10-05T12:02:01.488Z,18.20
2018-10-05T12:04:30.271Z,18.20
2018-10-05T12:06:59.136Z,18.30
2018-10-05T12:09:27.966Z,18.50
2018-10-05T12:11:56.775Z,18.50
2018-10-05T12:14:25.596Z,18.60
2018-10-05T12:16:54.407Z,18.80
2018-10-05T12:19:23.296Z,18.90
2018-10-05T12:21:52.111Z,18.90
2018-10-05T12:24:20.891Z,19.10
2018-10-05T12:26:49.696Z,19.20
2018-10-05T12:29:18.590Z,19.20
2018-10-05T12:31:47.551Z,19.30
2018-10-05T12:34:16.337Z,19.40
2018-10-05T12:36:45.189Z,19.50
2018-10-05T12:39:13.996Z,19.60
2018-10-05T12:41:42.801Z,19.70
2018-10-05T12:44:11.644Z,19.80
2018-10-05T12:46:40.463Z,19.90
2018-10-05T12:49:09.262Z,19.90
2018-10-05T12:51:38.051Z,20.00
2018-10-05T12:54:06.869Z,20.10
2018-10-05T12:56:35.979Z,20.20
2018-10-05T12:59:05.132Z,20.30
2018-10-05T13:01:33.935Z,20.30
2018-10-05T13:04:02.856Z,20.40
2018-10-05T13:06:31.721Z,20.40
2018-10-05T13:09:00.539Z,20.50
2018-10-05T13:11:29.383Z,20.50
2018-10-05T13:13:58.405Z,20.60
2018-10-05T13:16:27.244Z,20.70
2018-10-05T13:18:56.024Z,20.70
2018-10-05T13:21:25.119Z,20.80
2018-10-05T13:23:53.927Z,20.80
2018-10-05T13:26:22.857Z,20.90
2018-10-05T13:28:51.720Z,21.00
2018-10-05T13:31:20.619Z,21.10
2018-10-05T13:33:49.542Z,21.10
2018-10-05T13:36:18.848Z,21.20
2018-10-05T13:38:47.681Z,21.30
2018-10-05T13:41:16.488Z,21.40
2018-10-05T13:43:45.306Z,21.40
2018-10-05T13:46:14.218Z,21.50
2018-10-05T13:48:43.103Z,21.50
2018-10-05T13:51:11.930Z,21.50
2018-10-05T13:53:40.720Z,21.60
2018-10-05T13:56:09.575Z,21.60
2018-10-05T13:58:38.449Z,21.60
2018-10-05T14:01:07.331Z,21.70
2018-10-05T14:03:36.124Z,21.70
2018-10-05T14:06:04.974Z,21.70
2018-10-05T14:08:34.002Z,21.80
2018-10-05T14:11:02.936Z,21.80
2018-10-05T14:13:31.785Z,21.80
2018-10-05T14:16:00.627Z,21.90
2018-10-05T14:18:29.540Z,21.90
2018-10-05T14:20:58.379Z,22.00
2018-10-05T14:23:27.763Z,22.00
2018-10-05T14:25:56.588Z,22.00
2018-10-05T14:28:25.478Z,22.00
2018-10-05T14:30:54.372Z,22.10
2018-10-05T14:33:23.221Z,22.10
2018-10-05T14:35:52.037Z,22.10
2018-10-05T14:38:20.888Z,22.10
2018-10-05T14:40:49.708Z,22.10
2018-10-05T14:43:18.542Z,22.10
2018-10-05T14:45:47.357Z,22.10
2018-10-05T14:48:16.191Z,22.10
2018-10-05T14:50:45.031Z,22.10
2018-10-05T14:53:13.853Z,22.00
2018-10-05T14:55:42.671Z,22.00
2018-10-05T14:58:11.465Z,22.00
2018-10-05T15:00:40.347Z,22.00
2018-10-05T15:03:09.143Z,22.00
2018-10-05T15:05:38.031Z,21.90
2018-10-05T15:08:06.907Z,21.90
2018-10-05T15:10:35.782Z,21.90
2018-10-05T15:13:04.693Z,21.90
2018-10-05T15:15:33.590Z,21.90
2018-10-05T15:18:02.415Z,21.80
2018-10-05T15:20:31.287Z,21.80
2018-10-05T15:23:00.069Z,21.80
2018-10-05T15:25:28.984Z,21.70
2018-10-05T15:27:57.893Z,21.70
2018-10-05T15:30:26.784Z,21.70
2018-10-05T15:32:59.715Z,21.60
2018-10-05T15:35:28.615Z,21.60
2018-10-05T15:37:57.467Z,21.50
2018-10-05T15:40:26.355Z,21.50
2018-10-05T15:42:55.265Z,21.40
2018-10-05T15:45:24.215Z,21.30
2018-10-05T15:47:53.162Z,21.30
2018-10-05T15:50:22.040Z,21.20
2018-10-05T15:52:50.867Z,21.10
2018-10-05T15:55:19.799Z,21.10
2018-10-05T15:57:48.651Z,21.00
2018-10-05T16:00:17.510Z,20.90
2018-10-05T16:02:46.384Z,20.80
2018-10-05T16:05:15.382Z,20.80
2018-10-05T16:07:44.809Z,20.70
2018-10-05T16:10:13.668Z,20.60
2018-10-05T16:12:42.520Z,20.60
2018-10-05T16:15:12.022Z,20.60
2018-10-05T16:17:41.029Z,20.50
2018-10-05T16:20:10.140Z,20.50
2018-10-05T16:22:39.009Z,20.40
2018-10-05T16:25:08.271Z,20.40
2018-10-05T16:27:37.088Z,20.30
2018-10-05T16:30:06.605Z,20.20
2018-10-05T16:32:35.621Z,20.20
2018-10-05T16:35:05.101Z,20.10
2018-10-05T16:37:34.212Z,20.00
2018-10-05T16:40:03.012Z,20.00
2018-10-05T16:42:32.125Z,19.90
2018-10-05T16:45:01.170Z,19.80
2018-10-05T16:47:30.094Z,19.80
2018-10-05T16:49:59.021Z,19.70
2018-10-05T16:52:27.864Z,19.70
2018-10-05T16:54:56.685Z,19.60
2018-10-05T16:57:25.653Z,19.60
2018-10-05T16:59:54.442Z,19.40
2018-10-05T17:02:23.239Z,19.40
2018-10-05T17:04:52.016Z,19.30
2018-10-05T17:07:20.850Z,19.20
2018-10-05T17:09:49.722Z,19.20
2018-10-05T17:12:18.527Z,19.20
2018-10-05T17:14:47.323Z,19.10
2018-10-05T17:17:16.201Z,19.10
2018-10-05T17:19:45.161Z,19.10
2018-10-05T17:22:14.086Z,19.00
2018-10-05T17:24:43.117Z,18.90
2018-10-05T17:27:11.933Z,18.80
2018-10-05T17:29:40.728Z,18.80
2018-10-05T17:32:09.834Z,18.80
2018-10-05T17:34:39.565Z,18.70
2018-10-05T17:37:09.456Z,18.70
2018-10-05T17:39:38.386Z,18.50
2018-10-05T17:42:07.230Z,18.50
2018-10-05T17:44:36.070Z,18.50
2018-10-05T17:47:04.956Z,18.40
2018-10-05T17:49:33.781Z,18.20
2018-10-05T17:52:02.673Z,18.10
2018-10-05T17:54:32.083Z,18.10
2018-10-05T17:57:00.992Z,18.10
2018-10-05T17:59:29.909Z,18.10
2018-10-05T18:01:58.812Z,17.90
2018-10-05T18:04:27.727Z,17.90
2018-10-05T18:06:56.664Z,17.90
2018-10-05T18:09:25.512Z,17.90
2018-10-05T18:11:54.995Z,17.90
2018-10-05T18:14:23.793Z,18.00
2018-10-05T18:16:52.633Z,17.90
2018-10-05T18:19:21.438Z,18.00
2018-10-05T18:21:50.217Z,17.90
2018-10-05T18:24:20.186Z,17.90
2018-10-05T18:26:49.022Z,17.80
2018-10-05T18:29:17.865Z,17.70
2018-10-05T18:31:46.689Z,17.70
2018-10-05T18:34:15.548Z,17.70
2018-10-05T18:36:44.416Z,17.70
2018-10-05T18:39:13.262Z,17.60
2018-10-05T18:41:42.171Z,17.50
2018-10-05T18:44:11.039Z,17.50
2018-10-05T18:46:39.811Z,17.30
2018-10-05T18:49:08.716Z,17.10
2018-10-05T18:51:37.556Z,17.00
2018-10-05T18:54:06.494Z,16.90
2018-10-05T18:56:46.569Z,16.90
2018-10-05T18:59:15.402Z,16.90
2018-10-05T19:01:44.288Z,16.90
2018-10-05T19:04:13.087Z,17.00
2018-10-05T19:06:41.976Z,16.90
2018-10-05T19:09:10.771Z,16.80
2018-10-05T19:11:39.578Z,16.70
2018-10-05T19:14:08.467Z,16.50
2018-10-05T19:16:37.329Z,16.40
2018-10-05T19:19:06.174Z,16.40
2018-10-05T19:21:34.989Z,16.40
2018-10-05T19:24:03.857Z,16.30
2018-10-05T19:26:32.884Z,16.30
2018-10-05T19:29:01.669Z,16.30
2018-10-05T19:31:30.497Z,16.20
2018-10-05T19:33:59.290Z,16.00
2018-10-05T19:36:28.197Z,16.00
2018-10-05T19:38:57.171Z,16.00
2018-10-05T19:41:25.950Z,16.00
2018-10-05T19:43:54.718Z,15.70
2018-10-05T19:46:23.496Z,15.70
2018-10-05T19:48:52.303Z,15.80
2018-10-05T19:51:21.135Z,15.80
2018-10-05T19:53:49.996Z,15.70
2018-10-05T19:56:18.717Z,15.70
2018-10-05T19:58:47.563Z,15.70
2018-10-05T20:01:16.378Z,15.70
2018-10-05T20:03:45.257Z,15.60
2018-10-05T20:06:14.066Z,15.60
2018-10-05T20:08:42.941Z,15.50
2018-10-05T20:11:11.829Z,15.30
2018-10-05T20:13:40.623Z,15.10
2018-10-05T20:16:09.728Z,15.20
2018-10-05T20:18:38.580Z,15.20
2018-10-05T20:21:07.807Z,15.20
2018-10-05T20:23:36.613Z,15.20
2018-10-05T20:26:05.453Z,15.20
2018-10-05T20:28:34.370Z,15.20
2018-10-05T20:31:03.546Z,15.20
2018-10-05T20:33:32.414Z,15.10
2018-10-05T20:36:01.285Z,15.00
2018-10-05T20:38:30.238Z,14.90
2018-10-05T20:40:59.017Z,14.90
2018-10-05T20:43:27.825Z,14.80
2018-10-05T20:45:56.673Z,14.80
2018-10-05T20:48:25.456Z,14.80
2018-10-05T20:50:54.303Z,14.80
2018-10-05T20:53:23.144Z,14.60
2018-10-05T20:55:52.032Z,14.30
2018-10-05T20:58:20.849Z,14.30
2018-10-05T21:00:49.631Z,14.30
2018-10-05T21:03:18.438Z,14.20
2018-10-05T21:05:47.260Z,14.30
2018-10-05T21:08:16.105Z,14.30
2018-10-05T21:10:44.901Z,14.30
2018-10-05T21:13:13.694Z,14.20
2018-10-05T21:15:42.600Z,14.20
2018-10-05T21:18:11.434Z,14.20
2018-10-05T21:20:40.269Z,14.20
2018-10-05T21:23:09.080Z,14.10
2018-10-05T21:25:37.883Z,14.10
2018-10-05T21:28:07.096Z,14.10
2018-10-05T21:30:35.980Z,14.10
2018-10-05T21:33:05.175Z,14.00
2018-10-05T21:35:33.981Z,13.90
2018-10-05T21:38:02.797Z,13.90
2018-10-05T21:40:31.655Z,13.90
2018-10-05T21:43:00.535Z,13.90
2018-10-05T21:45:29.308Z,13.80
2018-10-05T21:47:58.074Z,13.80
2018-10-05T21:50:26.833Z,13.70
2018-10-05T21:52:55.588Z,13.70
2018-10-05T21:55:24.377Z,13.70
2018-10-05T21:57:53.204Z,13.70
2018-10-05T22:00:22.062Z,13.60
2018-10-05T22:02:50.856Z,13.60
2018-10-05T22:05:19.687Z,13.50
2018-10-05T22:07:48.528Z,13.30
2018-10-05T22:10:17.340Z,13.20
2018-10-05T22:12:46.149Z,13.20
2018-10-05T22:15:14.918Z,13.10
2018-10-05T22:17:43.734Z,13.10
2018-10-05T22:20:12.567Z,12.90
2018-10-05T22:22:41.430Z,12.80
2018-10-05T22:25:10.193Z,12.70
2018-10-05T22:27:39.157Z,12.80
2018-10-05T22:30:08.307Z,13.00
2018-10-05T22:32:37.153Z,13.10
2018-10-05T22:35:06.082Z,13.10
2018-10-05T22:37:34.827Z,13.10
2018-10-05T22:40:03.647Z,13.10
2018-10-05T22:42:32.439Z,13.00
2018-10-05T22:45:01.232Z,13.00
2018-10-05T22:47:30.032Z,12.90
2018-10-05T22:49:58.821Z,13.00
2018-10-05T22:52:27.712Z,13.00
2018-10-05T22:54:56.549Z,13.00
2018-10-05T22:57:25.398Z,13.00
2018-10-05T22:59:54.203Z,13.00
2018-10-05T23:02:23.060Z,13.00
2018-10-05T23:04:51.891Z,12.90
2018-10-05T23:07:20.673Z,12.80
2018-10-05T23:09:49.520Z,12.60
2018-10-05T23:12:18.269Z,12.60
2018-10-05T23:14:47.065Z,12.70
2018-10-05T23:17:15.820Z,12.70
2018-10-05T23:19:44.640Z,12.70
2018-10-05T23:22:13.472Z,12.80
2018-10-05T23:24:42.264Z,12.80
2018-10-05T23:27:11.064Z,12.80
2018-10-05T23:29:39.845Z,12.90
2018-10-05T23:32:08.672Z,12.80
2018-10-05T23:34:37.482Z,12.80
2018-10-05T23:37:06.379Z,12.80
2018-10-05T23:39:35.251Z,12.70
2018-10-05T23:42:04.063Z,12.60
2018-10-05T23:44:32.920Z,12.40
2018-10-05T23:47:01.787Z,12.50
2018-10-05T23:49:30.531Z,12.60
2018-10-05T23:52:10.224Z,12.50
2018-10-05T23:54:38.989Z,12.60
2018-10-05T23:57:07.787Z,12.60
2018-10-05T23:59:36.611Z,12.60
